QAK617 MMAA-MMMX
Flight info
| Callsign | QAK617 |
|---|---|
| Flight time | N/A |
| Altitude | 30000 |
| Route | ALNUS1B ALNUS UT117 ESPOS ESPOS3A |
| Aircraft | B738/M-SDE2E3FGHIRWXY/LB1 |
Departure
| Time | 2026-05-06 14:33 |
|---|---|
| Airport | General Juan N. Álvarez International Airport (MMAA) |
Arrival
| Time | N/A |
|---|---|
| Airport | Mexico City Benito Juárez International Airport (MMMX) |
| Time | Latitude | Longitude | Altitude | Speed | Heading |
|---|---|---|---|---|---|
| 2026-05-06 14:16 | 16.75979 | -99.75590 | 24 ft | 0 kts | 198° |
| 2026-05-06 14:25 | 16.75990 | -99.75585 | 24 ft | 4 kts | 198° |
| 2026-05-06 14:25 | 16.76012 | -99.75578 | 24 ft | 2 kts | 195° |
| 2026-05-06 14:25 | 16.76028 | -99.75575 | 24 ft | 1 kts | 175° |
| 2026-05-06 14:25 | 16.76039 | -99.75578 | 24 ft | 1 kts | 153° |
| 2026-05-06 14:26 | 16.76049 | -99.75586 | 24 ft | 1 kts | 130° |
| 2026-05-06 14:26 | 16.76056 | -99.75597 | 24 ft | 1 kts | 110° |
| 2026-05-06 14:26 | 16.76058 | -99.75603 | 24 ft | 0 kts | 108° |
| 2026-05-06 14:27 | 16.76057 | -99.75600 | 24 ft | 2 kts | 108° |
| 2026-05-06 14:27 | 16.76048 | -99.75559 | 24 ft | 9 kts | 105° |
| 2026-05-06 14:27 | 16.76024 | -99.75481 | 24 ft | 13 kts | 108° |
| 2026-05-06 14:27 | 16.75989 | -99.75370 | 24 ft | 18 kts | 108° |
| 2026-05-06 14:28 | 16.75990 | -99.75237 | 24 ft | 19 kts | 71° |
| 2026-05-06 14:28 | 16.75910 | -99.75143 | 24 ft | 20 kts | 159° |
| 2026-05-06 14:28 | 16.75770 | -99.75082 | 24 ft | 22 kts | 156° |
| 2026-05-06 14:28 | 16.75635 | -99.74989 | 24 ft | 24 kts | 136° |
| 2026-05-06 14:29 | 16.75540 | -99.74841 | 24 ft | 25 kts | 111° |
| 2026-05-06 14:29 | 16.75480 | -99.74655 | 24 ft | 27 kts | 109° |
| 2026-05-06 14:29 | 16.75425 | -99.74461 | 24 ft | 28 kts | 109° |
| 2026-05-06 14:29 | 16.75479 | -99.74313 | 24 ft | 26 kts | 16° |
| 2026-05-06 14:30 | 16.75536 | -99.74192 | 24 ft | 22 kts | 109° |
| 2026-05-06 14:30 | 16.75488 | -99.74033 | 24 ft | 23 kts | 107° |
| 2026-05-06 14:30 | 16.75436 | -99.73871 | 24 ft | 24 kts | 107° |
| 2026-05-06 14:30 | 16.75381 | -99.73701 | 24 ft | 25 kts | 106° |
| 2026-05-06 14:31 | 16.75326 | -99.73525 | 24 ft | 26 kts | 108° |
| 2026-05-06 14:31 | 16.75261 | -99.73349 | 24 ft | 25 kts | 140° |
| 2026-05-06 14:31 | 16.75111 | -99.73364 | 24 ft | 20 kts | 224° |
| 2026-05-06 14:31 | 16.75109 | -99.73463 | 24 ft | 1 kts | 288° |
| 2026-05-06 14:32 | 16.75116 | -99.73483 | 24 ft | 10 kts | 288° |
| 2026-05-06 14:32 | 16.75204 | -99.73779 | 25 ft | 87 kts | 289° |
| 2026-05-06 14:33 | 16.75502 | -99.74701 | 25 ft | 174 kts | 289° |
| 2026-05-06 14:33 | 16.75927 | -99.76034 | 501 ft | 210 kts | 287° |
| 2026-05-06 14:33 | 16.76382 | -99.77562 | 1184 ft | 225 kts | 289° |
| 2026-05-06 14:33 | 16.76872 | -99.79094 | 1723 ft | 228 kts | 288° |
| 2026-05-06 14:34 | 16.77372 | -99.80684 | 2187 ft | 234 kts | 288° |
| 2026-05-06 14:34 | 16.77861 | -99.82252 | 2203 ft | 235 kts | 288° |
| 2026-05-06 14:34 | 16.78367 | -99.83874 | 2216 ft | 234 kts | 288° |
| 2026-05-06 14:34 | 16.78871 | -99.85490 | 2217 ft | 233 kts | 288° |
| 2026-05-06 14:35 | 16.79660 | -99.86945 | 2200 ft | 232 kts | 311° |
| 2026-05-06 14:35 | 16.80893 | -99.87985 | 2464 ft | 233 kts | 331° |
| 2026-05-06 14:35 | 16.82410 | -99.88605 | 2727 ft | 234 kts | 342° |
| 2026-05-06 14:35 | 16.83986 | -99.89084 | 2978 ft | 235 kts | 344° |
| 2026-05-06 14:36 | 16.85571 | -99.89532 | 3229 ft | 236 kts | 345° |
| 2026-05-06 14:36 | 16.87162 | -99.89977 | 3480 ft | 237 kts | 345° |
| 2026-05-06 14:36 | 16.88751 | -99.90419 | 3729 ft | 238 kts | 345° |
| 2026-05-06 14:36 | 16.90354 | -99.90865 | 3995 ft | 239 kts | 345° |
| 2026-05-06 14:37 | 16.91979 | -99.91318 | 4118 ft | 245 kts | 345° |
| 2026-05-06 14:37 | 16.93617 | -99.91774 | 4257 ft | 240 kts | 345° |
| 2026-05-06 14:37 | 16.95236 | -99.91967 | 4607 ft | 238 kts | 3° |
| 2026-05-06 14:37 | 16.96841 | -99.91558 | 5115 ft | 241 kts | 24° |
| 2026-05-06 14:38 | 16.98345 | -99.90741 | 5635 ft | 245 kts | 29° |
| 2026-05-06 14:38 | 16.99916 | -99.89779 | 6245 ft | 279 kts | 31° |
| 2026-05-06 14:38 | 17.01651 | -99.88693 | 6936 ft | 310 kts | 31° |
| 2026-05-06 14:38 | 17.03580 | -99.87478 | 7653 ft | 338 kts | 31° |
| 2026-05-06 14:39 | 17.05665 | -99.86164 | 8375 ft | 364 kts | 31° |
| 2026-05-06 14:39 | 17.07898 | -99.84757 | 9106 ft | 388 kts | 31° |
| 2026-05-06 14:39 | 17.10204 | -99.83303 | 9786 ft | 391 kts | 31° |
| 2026-05-06 14:39 | 17.12256 | -99.82009 | 10247 ft | 388 kts | 31° |
| 2026-05-06 14:40 | 17.14442 | -99.80631 | 10388 ft | 391 kts | 31° |
| 2026-05-06 14:40 | 17.17018 | -99.79006 | 10403 ft | 389 kts | 31° |
| 2026-05-06 14:40 | 17.18845 | -99.77876 | 10395 ft | 389 kts | 28° |
| 2026-05-06 14:40 | 17.21560 | -99.76398 | 10833 ft | 388 kts | 22° |
| 2026-05-06 14:41 | 17.24162 | -99.75718 | 11176 ft | 388 kts | 6° |
| 2026-05-06 14:41 | 17.26858 | -99.75788 | 11544 ft | 388 kts | 351° |
| 2026-05-06 14:41 | 17.29502 | -99.76273 | 11929 ft | 387 kts | 353° |
| 2026-05-06 14:41 | 17.32177 | -99.76508 | 12304 ft | 387 kts | 356° |
| 2026-05-06 14:42 | 17.34839 | -99.76625 | 12671 ft | 386 kts | 358° |
| 2026-05-06 14:42 | 17.37406 | -99.76700 | 13026 ft | 386 kts | 358° |
| 2026-05-06 14:42 | 17.40008 | -99.76762 | 13386 ft | 385 kts | 359° |
| 2026-05-06 14:42 | 17.42673 | -99.76821 | 13756 ft | 385 kts | 359° |
| 2026-05-06 14:43 | 17.45373 | -99.76879 | 14131 ft | 384 kts | 359° |
| 2026-05-06 14:43 | 17.48036 | -99.76936 | 14501 ft | 384 kts | 359° |
| 2026-05-06 14:43 | 17.50697 | -99.76994 | 14869 ft | 383 kts | 359° |
| 2026-05-06 14:43 | 17.53326 | -99.77049 | 14965 ft | 385 kts | 359° |
| 2026-05-06 14:44 | 17.55912 | -99.77105 | 15458 ft | 390 kts | 359° |
| 2026-05-06 14:44 | 17.58710 | -99.77165 | 15994 ft | 409 kts | 359° |
| 2026-05-06 14:44 | 17.61593 | -99.77228 | 16534 ft | 426 kts | 359° |
| 2026-05-06 14:45 | 17.67642 | -99.77359 | 17744 ft | 438 kts | 359° |
| 2026-05-06 14:45 | 17.70724 | -99.77425 | 18222 ft | 434 kts | 359° |
| 2026-05-06 14:45 | 17.73510 | -99.77486 | 18683 ft | 433 kts | 359° |
| 2026-05-06 14:45 | 17.76632 | -99.77555 | 19195 ft | 433 kts | 359° |
| 2026-05-06 14:46 | 17.79612 | -99.77675 | 19684 ft | 432 kts | 357° |
| 2026-05-06 14:46 | 17.82653 | -99.77831 | 20186 ft | 431 kts | 357° |
| 2026-05-06 14:46 | 17.85609 | -99.77988 | 20674 ft | 431 kts | 357° |
| 2026-05-06 14:46 | 17.88632 | -99.78149 | 21174 ft | 430 kts | 357° |
| 2026-05-06 14:47 | 17.91586 | -99.78307 | 21664 ft | 429 kts | 357° |
| 2026-05-06 14:47 | 17.94592 | -99.78468 | 22164 ft | 428 kts | 357° |
| 2026-05-06 14:47 | 17.97349 | -99.78616 | 22622 ft | 428 kts | 357° |
| 2026-05-06 14:47 | 17.99805 | -99.78747 | 23032 ft | 427 kts | 357° |
| 2026-05-06 14:48 | 18.03191 | -99.78928 | 23597 ft | 426 kts | 357° |
| 2026-05-06 14:48 | 18.05671 | -99.79061 | 24012 ft | 426 kts | 357° |
| 2026-05-06 14:48 | 18.08816 | -99.79229 | 24540 ft | 425 kts | 357° |
| 2026-05-06 14:48 | 18.10832 | -99.79337 | 24878 ft | 424 kts | 357° |
| 2026-05-06 14:49 | 18.16681 | -99.79651 | 25863 ft | 423 kts | 357° |
| 2026-05-06 14:49 | 18.20185 | -99.79839 | 26455 ft | 422 kts | 357° |
| 2026-05-06 14:49 | 18.23254 | -99.80003 | 26958 ft | 421 kts | 357° |
| 2026-05-06 14:50 | 18.26199 | -99.80161 | 27411 ft | 421 kts | 357° |
| 2026-05-06 14:50 | 18.29103 | -99.80317 | 27843 ft | 420 kts | 357° |
| 2026-05-06 14:50 | 18.31885 | -99.80466 | 28258 ft | 419 kts | 357° |
| 2026-05-06 14:50 | 18.34837 | -99.80625 | 28708 ft | 418 kts | 357° |
| 2026-05-06 14:51 | 18.37655 | -99.80776 | 29143 ft | 418 kts | 357° |
| 2026-05-06 14:51 | 18.43205 | -99.81075 | 28559 ft | 425 kts | 357° |
| 2026-05-06 14:51 | 18.46209 | -99.81236 | 28001 ft | 419 kts | 357° |
| 2026-05-06 14:52 | 18.49018 | -99.81387 | 27478 ft | 413 kts | 357° |
| 2026-05-06 14:52 | 18.51769 | -99.81535 | 26961 ft | 408 kts | 357° |
| 2026-05-06 14:52 | 18.54565 | -99.81686 | 26423 ft | 403 kts | 357° |
| 2026-05-06 14:52 | 18.57340 | -99.81835 | 25996 ft | 395 kts | 357° |
| 2026-05-06 14:53 | 18.60038 | -99.81980 | 25950 ft | 377 kts | 357° |
| 2026-05-06 14:53 | 18.62358 | -99.82105 | 25930 ft | 362 kts | 357° |
| 2026-05-06 14:53 | 18.64956 | -99.82245 | 25949 ft | 355 kts | 357° |
| 2026-05-06 14:53 | 18.67108 | -99.82349 | 25992 ft | 360 kts | 360° |
| 2026-05-06 14:54 | 18.69623 | -99.81978 | 25972 ft | 366 kts | 16° |
| 2026-05-06 14:54 | 18.71431 | -99.81203 | 25969 ft | 364 kts | 27° |
| 2026-05-06 14:54 | 18.75490 | -99.76783 | 24924 ft | 354 kts | 63° |
| 2026-05-06 14:55 | 18.76550 | -99.74442 | 24551 ft | 349 kts | 65° |
| 2026-05-06 14:55 | 18.77547 | -99.72149 | 24169 ft | 344 kts | 65° |
| 2026-05-06 14:55 | 18.78522 | -99.69874 | 23790 ft | 340 kts | 65° |
| 2026-05-06 14:55 | 18.79165 | -99.68367 | 23536 ft | 337 kts | 65° |
| 2026-05-06 14:56 | 18.80446 | -99.65355 | 22991 ft | 333 kts | 65° |
| 2026-05-06 14:56 | 18.81388 | -99.63135 | 22588 ft | 330 kts | 65° |
| 2026-05-06 14:56 | 18.82317 | -99.60944 | 22189 ft | 328 kts | 65° |
| 2026-05-06 14:56 | 18.83203 | -99.58855 | 21808 ft | 325 kts | 65° |
| 2026-05-06 14:57 | 18.83843 | -99.57346 | 21534 ft | 324 kts | 65° |
| 2026-05-06 14:57 | 18.84760 | -99.55180 | 21138 ft | 321 kts | 65° |
| 2026-05-06 14:57 | 18.85957 | -99.52351 | 20975 ft | 306 kts | 65° |
| 2026-05-06 14:57 | 18.86527 | -99.51006 | 20970 ft | 302 kts | 65° |
| 2026-05-06 14:58 | 18.87672 | -99.48302 | 21001 ft | 308 kts | 65° |
| 2026-05-06 14:58 | 18.88252 | -99.46929 | 21004 ft | 311 kts | 65° |
| 2026-05-06 14:58 | 18.89394 | -99.44228 | 21000 ft | 312 kts | 65° |
| 2026-05-06 14:58 | 18.90279 | -99.42136 | 20999 ft | 312 kts | 65° |
| 2026-05-06 14:59 | 18.90863 | -99.40755 | 20999 ft | 311 kts | 65° |
| 2026-05-06 14:59 | 18.92029 | -99.37992 | 20640 ft | 317 kts | 65° |
| 2026-05-06 14:59 | 18.92928 | -99.35864 | 20270 ft | 315 kts | 65° |
| 2026-05-06 14:59 | 18.93708 | -99.34016 | 19937 ft | 313 kts | 66° |
| 2026-05-06 15:00 | 18.94665 | -99.31747 | 19527 ft | 310 kts | 66° |
| 2026-05-06 15:00 | 18.95498 | -99.29638 | 19132 ft | 308 kts | 74° |
| 2026-05-06 15:00 | 18.95759 | -99.27417 | 18724 ft | 307 kts | 93° |
| 2026-05-06 15:00 | 18.95326 | -99.25211 | 18327 ft | 305 kts | 111° |
| 2026-05-06 15:01 | 18.94814 | -99.24051 | 18120 ft | 302 kts | 118° |
| 2026-05-06 15:01 | 18.93376 | -99.21540 | 18035 ft | 287 kts | 123° |
| 2026-05-06 15:01 | 18.92690 | -99.20461 | 18043 ft | 289 kts | 124° |
| 2026-05-06 15:01 | 18.91108 | -99.18082 | 18036 ft | 296 kts | 126° |
| 2026-05-06 15:02 | 18.89910 | -99.16326 | 18025 ft | 297 kts | 126° |
| 2026-05-06 15:02 | 18.88892 | -99.14446 | 17977 ft | 296 kts | 110° |
| 2026-05-06 15:02 | 18.88352 | -99.12344 | 18020 ft | 296 kts | 103° |
| 2026-05-06 15:02 | 18.87950 | -99.10408 | 17996 ft | 289 kts | 102° |
| 2026-05-06 15:03 | 18.87557 | -99.08345 | 17974 ft | 268 kts | 101° |
| 2026-05-06 15:03 | 18.87209 | -99.06434 | 17977 ft | 264 kts | 101° |
| 2026-05-06 15:03 | 18.86904 | -99.04504 | 17988 ft | 269 kts | 93° |
| 2026-05-06 15:03 | 18.87083 | -99.02754 | 17822 ft | 274 kts | 74° |
| 2026-05-06 15:04 | 18.87988 | -99.00871 | 17526 ft | 272 kts | 51° |
| 2026-05-06 15:04 | 18.88893 | -98.99935 | 17338 ft | 270 kts | 37° |
| 2026-05-06 15:04 | 18.91173 | -98.98943 | 16969 ft | 266 kts | 7° |
| 2026-05-06 15:04 | 18.92390 | -98.98938 | 16791 ft | 265 kts | 353° |
| 2026-05-06 15:05 | 18.94159 | -98.99442 | 16428 ft | 267 kts | 343° |
| 2026-05-06 15:05 | 18.96475 | -99.00010 | 15933 ft | 260 kts | 349° |
| 2026-05-06 15:05 | 18.98247 | -99.00264 | 15549 ft | 259 kts | 354° |
| 2026-05-06 15:05 | 19.00012 | -99.00388 | 15117 ft | 253 kts | 357° |
| 2026-05-06 15:06 | 19.01684 | -99.00472 | 14682 ft | 244 kts | 357° |
| 2026-05-06 15:06 | 19.03335 | -99.00546 | 14246 ft | 237 kts | 357° |
| 2026-05-06 15:06 | 19.04923 | -99.00617 | 13997 ft | 227 kts | 357° |
| 2026-05-06 15:06 | 19.06365 | -99.00681 | 14013 ft | 229 kts | 357° |
| 2026-05-06 15:07 | 19.08024 | -99.00755 | 14021 ft | 235 kts | 357° |
| 2026-05-06 15:07 | 19.09647 | -99.00828 | 14012 ft | 232 kts | 357° |
| 2026-05-06 15:07 | 19.10815 | -99.00880 | 13998 ft | 230 kts | 357° |
| 2026-05-06 15:07 | 19.12747 | -99.00966 | 14000 ft | 230 kts | 357° |
| 2026-05-06 15:08 | 19.13790 | -99.01012 | 14000 ft | 230 kts | 357° |
| 2026-05-06 15:08 | 19.15423 | -99.01086 | 13665 ft | 234 kts | 357° |
| 2026-05-06 15:08 | 19.17520 | -99.01472 | 13134 ft | 229 kts | 336° |
| 2026-05-06 15:08 | 19.18413 | -99.02022 | 12882 ft | 226 kts | 324° |
| 2026-05-06 15:09 | 19.19959 | -99.03384 | 12520 ft | 220 kts | 318° |
| 2026-05-06 15:09 | 19.21060 | -99.04454 | 12503 ft | 217 kts | 317° |
| 2026-05-06 15:09 | 19.22105 | -99.05486 | 12484 ft | 211 kts | 317° |
| 2026-05-06 15:09 | 19.23188 | -99.06561 | 12497 ft | 212 kts | 316° |
| 2026-05-06 15:10 | 19.24116 | -99.07673 | 12334 ft | 218 kts | 302° |
| 2026-05-06 15:10 | 19.24794 | -99.09094 | 11971 ft | 214 kts | 294° |
| 2026-05-06 15:10 | 19.25383 | -99.10506 | 11589 ft | 211 kts | 293° |
| 2026-05-06 15:10 | 19.25932 | -99.11867 | 11226 ft | 209 kts | 293° |
| 2026-05-06 15:11 | 19.26441 | -99.13139 | 11016 ft | 203 kts | 293° |
| 2026-05-06 15:11 | 19.27023 | -99.14597 | 11010 ft | 205 kts | 292° |
| 2026-05-06 15:11 | 19.27548 | -99.15913 | 10999 ft | 196 kts | 292° |
| 2026-05-06 15:11 | 19.28287 | -99.17090 | 10705 ft | 196 kts | 317° |
| 2026-05-06 15:12 | 19.29400 | -99.17866 | 10319 ft | 191 kts | 331° |
| 2026-05-06 15:12 | 19.30563 | -99.18495 | 9938 ft | 188 kts | 334° |
| 2026-05-06 15:12 | 19.31665 | -99.19051 | 9557 ft | 188 kts | 335° |
| 2026-05-06 15:12 | 19.32771 | -99.19595 | 9347 ft | 180 kts | 335° |
| 2026-05-06 15:13 | 19.34013 | -99.19923 | 9332 ft | 182 kts | 2° |
| 2026-05-06 15:13 | 19.35026 | -99.19713 | 9366 ft | 185 kts | 14° |
| 2026-05-06 15:13 | 19.36132 | -99.19417 | 9327 ft | 176 kts | 14° |
| 2026-05-06 15:13 | 19.37135 | -99.19000 | 9319 ft | 173 kts | 36° |
| 2026-05-06 15:14 | 19.37867 | -99.17996 | 9340 ft | 174 kts | 69° |
| 2026-05-06 15:14 | 19.38905 | -99.15414 | 8933 ft | 175 kts | 61° |
| 2026-05-06 15:14 | 19.39501 | -99.14304 | 8695 ft | 173 kts | 59° |
| 2026-05-06 15:15 | 19.40070 | -99.13281 | 8475 ft | 172 kts | 59° |
| 2026-05-06 15:15 | 19.40659 | -99.12231 | 8243 ft | 172 kts | 59° |
| 2026-05-06 15:15 | 19.41194 | -99.11289 | 8073 ft | 169 kts | 59° |